Vance Air Force Base
KEND : now visible

Aeroporto :











RITROVATECI SU...

 
LOGIN :

Iscrizione | Disclaimer

   EN    FR    IT 

 









Sommario :    VFR   VFR Marginale   IFR   IFR Intensivo   IFR Molto Intensivo
Visibilità : 
Base nubi : 
>= 8 km
>= 3000ft
5 / 8 km
1000 / 3000 ft
1500m / 5 km
500 / 1000 ft
800 / 1500m
200 / 500 ft
< 800m
< 200 ft
Simboli :   Temporali  Nebbia  Neve Forte  Precipitazioni Forti  Vento > 20 kt






- Altitudine del aeroporto : 1307 ft


KEND - Vance Air Force Base

ULTIMO METAR :
  • 272100Z 09007KT 10SM CLR 16/04 A2992 RMK AO2A SLPNO RVRNO $

METARs OBSOLETI :
  • 271956Z AUTO 09007KT 10SM CLR 16/04 A2992 RMK AO2 SLPNO T01620042 $
  • 271856Z AUTO 05004KT 10SM CLR 16/03 A2995 RMK AO2 SLPNO T01640034 $

TAF TAF KEND
Valido dal 27 a 18 ore il 29 a 00 ore UTC


271800Z 2718/2900 VRB06KT 9999 FEW120 SCT250 QNH2999INS
BECMG 2720/2721 08013KT 9999 FEW120 SCT250 QNH2993INS
BECMG 2802/2803 06015G25KT 8000 BR VCSH SCT015 BKN030 QNH2995INS
BECMG 2808/2809 05012G25KT 4800 -RA BR OVC007 510079 QNH2992INS
BECMG 2815/2816 02015G25KT 4800 -RASN BR OVC005 510059 QNH3000INS
TEMPO 2815/2818 4800 -FZRA BR
BECMG 2818/2819 01017G30KT 4800 -SN BR OVC005 540079 QNH3001INS TX13/2720Z TN00/2810Z



MetMap, La meteo Aeronautica in un colpo d'occhio ! - Copyright ORBIFLY Dicembre 2007 - Disclaimer

ORBIFLY MET'MAP TEAM :

Programmazione e sviluppo : Alexandra Zaïnal
Concezione : Baudouin d'Aumeries
Aiuto per la programmazione : Marc-Olivier Méhu
Supporto tecnico e logistico : Manuel Goepfert
Aiuto per la traduzione : Arnaldo La Scala

Contatto : metmap@orbifly.com




FONTI E CREDITI :

   NOAA       Earth
Advisory